Wilson Gdynia — 8PSA — position and weather

sailwx.info

Track history (hours):
 
Tides and Currents Weather Stations Pressure Air Temp Water Temp Dewpoint Dewpoint Depression Visibility Wind Speed Wind Dir Waves Ship Positions

Wilson Gdynia

Last reported at 2017-May-27 19:24 UTC. Time now 2017-May-27 19:33 UTC.
Position N 51°50' E 003°23'.

Length 88 m; draft 3.5 m.

Type: Cargo ship. MMSI: 314192000.

Date/timePositionNaut miles runAvg speedWind from/ knotsBaromVisibWave heightAir tempDewpointWater temp
2017-May-27 19:24N 51°50' E 003°23'0 0.0
2017-May-27 19:00N 51°50' E 003°23'0 0.0
2017-May-27 18:27N 51°50' E 003°23'0 0.0
2017-May-27 17:57N 51°50' E 003°23'0 0.0
2017-May-27 17:30N 51°50' E 003°23'0 0.0
2017-May-27 16:57N 51°50' E 003°23'0 0.0
2017-May-27 16:30N 51°50' E 003°23'0 0.0
2017-May-27 16:00N 51°50' E 003°23'0 0.0
2017-May-27 14:15N 51°50' E 003°23'0 0.0
2017-May-27 09:51N 51°49' E 003°22'3 6.9
2017-May-27 09:26N 51°48' E 003°19'7 8.7
2017-May-27 08:41N 51°41' E 003°18'410.0
2017-May-27 08:18N 51°38' E 003°21'310.5
2017-May-27 08:00N 51°35' E 003°24'510.4
2017-May-27 07:30N 51°30' E 003°27'611.4
2017-May-27 07:00N 51°26' E 003°34'5 9.1
2017-May-27 06:28N 51°28' E 003°42'0 0.0
2017-May-27 05:52N 51°28' E 003°42'0 0.0
2017-May-27 05:16N 51°28' E 003°42'0 0.0
2017-May-27 02:34N 51°28' E 003°42'0 0.0
2017-May-27 02:10N 51°28' E 003°42'0 0.0
2017-May-27 00:52N 51°28' E 003°42'0 0.0
2017-May-27 00:16N 51°28' E 003°42'0 0.0
2017-May-26 23:46N 51°28' E 003°42'0 0.0
2017-May-26 23:25N 51°28' E 003°42'0 0.0
2017-May-26 22:25N 51°28' E 003°42'0 0.0
2017-May-26 20:28N 51°28' E 003°42'0 0.0
2017-May-26 19:40N 51°28' E 003°42'0 0.0
2017-May-26 19:28N 51°28' E 003°42'0 0.0
2017-May-26 18:58N 51°28' E 003°42'0 0.0
2017-May-26 18:28N 51°28' E 003°42'0 0.0
2017-May-26 17:46N 51°28' E 003°42'0 0.0
2017-May-26 17:28N 51°28' E 003°42'0 0.0
2017-May-26 16:58N 51°28' E 003°42'0 0.0
2017-May-26 16:19N 51°28' E 003°42'0 0.0
2017-May-26 15:55N 51°28' E 003°42'0 0.0
2017-May-26 15:25N 51°28' E 003°42'0 0.0
2017-May-26 14:46N 51°28' E 003°42'0 0.0
2017-May-26 13:58N 51°28' E 003°42'0 0.0
2017-May-26 13:16N 51°28' E 003°42'0 0.0
2017-May-26 12:58N 51°28' E 003°42'0 0.0
2017-May-26 12:22N 51°28' E 003°42'0 0.0
2017-May-26 11:58N 51°28' E 003°42'0 0.0
2017-May-26 11:22N 51°28' E 003°42'0 0.0
2017-May-26 10:16N 51°28' E 003°42'0 0.0
2017-May-26 09:52N 51°28' E 003°42'0 0.0
2017-May-26 08:40N 51°28' E 003°42'0 0.0
2017-May-26 08:28N 51°28' E 003°42'0 0.0
2017-May-26 07:46N 51°28' E 003°42'0 0.0
2017-May-26 07:22N 51°28' E 003°42'0 0.0
2017-May-26 06:46N 51°28' E 003°42'0 0.0
2017-May-26 06:28N 51°28' E 003°42'0 0.0
2017-May-26 05:52N 51°28' E 003°42'0 0.0
2017-May-26 04:58N 51°28' E 003°42'0 0.0
2017-May-26 04:22N 51°28' E 003°42'0 0.0
2017-May-26 02:58N 51°28' E 003°42'0 0.0
2017-May-26 02:28N 51°28' E 003°42'0 0.0
2017-May-26 01:52N 51°28' E 003°42'0 0.0
2017-May-26 01:28N 51°28' E 003°42'0 0.0
2017-May-26 00:52N 51°28' E 003°42'0 0.0
2017-May-26 00:16N 51°28' E 003°42'0 0.0
2017-May-25 23:58N 51°28' E 003°42'0 0.0
2017-May-25 23:28N 51°28' E 003°42'0 0.0
2017-May-25 22:22N 51°28' E 003°42'0 0.0
2017-May-25 21:58N 51°28' E 003°42'0 0.0
2017-May-25 20:46N 51°28' E 003°42'0 0.0
2017-May-25 19:40N 51°28' E 003°42'0 0.0
2017-May-25 19:10N 51°28' E 003°42'0 0.0
2017-May-25 17:16N 51°28' E 003°42'0 0.0
2017-May-25 16:58N 51°28' E 003°42'0 0.0
2017-May-25 16:18N 51°28' E 003°42'0 0.4
2017-May-25 16:00N 51°28' E 003°42'3 6.3
2017-May-25 15:30N 51°26' E 003°37'3 6.5
2017-May-25 15:00N 51°27' E 003°32'4 7.5
2017-May-25 14:29N 51°30' E 003°28'18 8.6
2017-May-25 12:21N 51°46' E 003°13'810.0
2017-May-25 11:33N 51°49' E 003°01'210.4
2017-May-25 11:23N 51°49' E 002°58'410.4
2017-May-25 10:57N 51°51' E 002°52'510.2
2017-May-25 10:27N 51°53' E 002°44'610.2
2017-May-25 09:52N 51°58' E 002°38'410.6
2017-May-25 09:30N 52°02' E 002°35'710.7
2017-May-25 08:51N 52°07' E 002°29'911.0
2017-May-25 08:00N 52°16' E 002°22'911.4
2017-May-25 07:14N 52°23' E 002°15'1211.8
2017-May-25 06:11N 52°34' E 002°05'212.0
2017-May-25 06:00N 52°36' E 002°03'612.2
2017-May-25 05:30N 52°41' E 001°58'611.6
2017-May-25 05:01N 52°46' E 001°53'611.1
2017-May-25 04:31N 52°50' E 001°47'510.3
2017-May-25 04:01N 52°54' E 001°41'5 9.8
2017-May-25 03:31N 52°57' E 001°36'5 9.2
2017-May-25 03:01N 53°01' E 001°30'4 8.7
2017-May-25 02:31N 53°04' E 001°25'4 8.2
2017-May-25 02:01N 53°07' E 001°20'4 8.0
2017-May-25 01:30N 53°10' E 001°16'56 8.6
2017-May-24 18:57N 53°37' W 000°07'3 0.2
2017-May-24 02:29N 53°38' W 000°12'0 0.6
2017-May-24 01:59N 53°38' W 000°11'1 1.2
2017-May-24 01:30N 53°38' W 000°11'49 5.2
2017-May-23 16:06N 53°18' E 001°04'1 9.7
2017-May-23 15:59N 53°17' E 001°05'5 9.8
2017-May-23 15:31N 53°14' E 001°10'510.0
2017-May-23 15:01N 53°10' E 001°16'510.6
2017-May-23 14:30N 53°06' E 001°22'1211.6
2017-May-23 13:30N 52°58' E 001°34'612.7
2017-May-23 13:01N 52°53' E 001°42'713.1
2017-May-23 12:31N 52°49' E 001°50'713.1
2017-May-23 12:01N 52°44' E 001°57'713.1
2017-May-23 11:31N 52°38' E 002°02'612.8
2017-May-23 11:01N 52°33' E 002°08'4610.6
2017-May-23 06:41N 51°54' E 002°50'310.4
2017-May-23 06:22N 51°52' E 002°54'910.5
2017-May-23 05:32N 51°48' E 003°06'210.8
2017-May-23 05:18N 51°47' E 003°10'310.4
2017-May-23 04:59N 51°45' E 003°14'510.0
2017-May-23 04:30N 51°41' E 003°19'510.9
2017-May-23 04:00N 51°36' E 003°23'611.2
2017-May-23 03:30N 51°31' E 003°26'611.5
2017-May-23 03:01N 51°27' E 003°33'510.6
2017-May-23 02:30N 51°25' E 003°40'713.1
2017-May-23 02:00N 51°21' E 003°49'1 2.0
2017-May-23 01:30N 51°20' E 003°49'1 1.2
2017-May-23 01:00N 51°19' E 003°49'1 2.3
2017-May-23 00:30N 51°18' E 003°50'0 0.0
2017-May-23 00:00N 51°18' E 003°50'0 0.0
2017-May-22 23:18N 51°18' E 003°50'0 0.0
2017-May-22 23:00N 51°18' E 003°50'0 0.0
2017-May-22 22:30N 51°18' E 003°50'0 0.0
2017-May-22 22:00N 51°18' E 003°50'0 0.0
2017-May-22 21:30N 51°18' E 003°50'0 0.0
2017-May-22 21:00N 51°18' E 003°50'0 0.0
2017-May-22 20:30N 51°18' E 003°50'0 0.0
2017-May-22 20:00N 51°18' E 003°50'0 0.0
2017-May-22 19:30N 51°18' E 003°50'0 0.0
2017-May-22 19:00N 51°18' E 003°50'0 0.0
2017-May-22 18:30N 51°18' E 003°50'0 0.0
2017-May-22 17:57N 51°18' E 003°50'0 0.0
2017-May-22 17:18N 51°18' E 003°50'0 0.0
2017-May-22 17:00N 51°18' E 003°50'0 0.0
2017-May-22 16:24N 51°18' E 003°50'0 0.0
2017-May-22 16:00N 51°18' E 003°50'0 0.0
2017-May-22 15:30N 51°18' E 003°50'0 0.0
2017-May-22 14:54N 51°18' E 003°50'0 0.0
2017-May-22 13:48N 51°18' E 003°50'0 0.0
2017-May-22 13:30N 51°18' E 003°50'0 0.0
2017-May-22 12:58N 51°18' E 003°50'0 0.0
2017-May-22 12:28N 51°18' E 003°50'0 0.0
2017-May-22 11:58N 51°18' E 003°50'0 0.0
2017-May-22 11:28N 51°18' E 003°50'0 0.0
2017-May-22 10:58N 51°18' E 003°50'0 0.0
2017-May-22 10:22N 51°18' E 003°50'0 0.0
2017-May-22 09:58N 51°18' E 003°50'0 0.0
2017-May-22 09:28N 51°18' E 003°50'0 0.0
2017-May-22 08:58N 51°18' E 003°50'0 0.0
2017-May-22 08:22N 51°18' E 003°50'0 0.0
2017-May-22 07:58N 51°18' E 003°50'0 0.0
2017-May-22 07:28N 51°18' E 003°50'0 0.0
2017-May-22 06:58N 51°18' E 003°50'0 0.0
2017-May-22 06:28N 51°18' E 003°50'0 0.0
2017-May-22 05:58N 51°18' E 003°50'0 0.0
2017-May-22 05:28N 51°18' E 003°50'0 0.0
2017-May-22 04:52N 51°18' E 003°50'0 0.0
2017-May-22 04:22N 51°18' E 003°50'0 0.0
2017-May-22 03:58N 51°18' E 003°50'0 0.0
2017-May-22 03:28N 51°18' E 003°50'0 0.0
2017-May-22 02:58N 51°18' E 003°50'0 0.0
2017-May-22 02:28N 51°18' E 003°50'0 0.0
2017-May-22 01:58N 51°18' E 003°50'0 0.0
2017-May-22 01:22N 51°18' E 003°50'0 0.0
2017-May-22 00:58N 51°18' E 003°50'0 0.0
2017-May-22 00:22N 51°18' E 003°50'0 0.0
2017-May-21 23:52N 51°18' E 003°50'0 0.0
2017-May-21 23:28N 51°18' E 003°50'0 0.0
2017-May-21 22:52N 51°18' E 003°50'0 0.0
2017-May-21 22:28N 51°18' E 003°50'0 0.0
2017-May-21 21:58N 51°18' E 003°50'0 0.0
2017-May-21 21:25N 51°18' E 003°50'0 0.0
2017-May-21 20:58N 51°18' E 003°50'0 0.0
2017-May-21 20:28N 51°18' E 003°50'0 0.0
2017-May-21 19:58N 51°18' E 003°50'1 2.6
2017-May-21 19:30N 51°19' E 003°50'1 1.9
2017-May-21 19:00N 51°20' E 003°49'1 1.0
2017-May-21 18:30N 51°21' E 003°49'3 6.0
2017-May-21 18:00N 51°22' E 003°44'4 7.8
2017-May-21 17:30N 51°25' E 003°40'4 8.1
2017-May-21 17:00N 51°26' E 003°34'5 9.2
2017-May-21 16:31N 51°30' E 003°29'16 9.8
2017-May-21 14:52N 51°43' E 003°15'7 8.6
2017-May-21 14:00N 51°50' E 003°17'5 9.2
2017-May-21 13:30N 51°55' E 003°18'8 8.8
2017-May-21 12:38N 52°02' E 003°21'2 9.1
2017-May-21 12:25N 52°04' E 003°21'3 8.6
2017-May-21 12:00N 52°08' E 003°22'21 8.4
2017-May-21 09:29N 52°29' E 003°28'24 7.8
2017-May-21 06:27N 52°49' E 003°48'6 9.7
2017-May-21 05:50N 52°54' E 003°54'3 9.2
2017-May-21 05:27N 52°56' E 003°58'4 8.8
2017-May-21 04:59N 52°59' E 004°03'4 8.7
2017-May-21 04:29N 53°02' E 004°09'5 8.5
2017-May-21 03:55N 53°05' E 004°15'14 7.6
2017-May-21 02:02N 53°16' E 004°29'90 7.8
2017-May-20 14:32N 54°43' E 005°10'1 8.0
2017-May-20 14:28N 54°44' E 005°11'8 8.0
2017-May-20 13:30N 54°51' E 005°13'4 8.0
2017-May-20 12:59N 54°55' E 005°14'166 8.4
2017-May-19 17:22N 57°41' E 004°57'6 9.7
2017-May-19 16:46N 57°46' E 004°56'3 9.7
2017-May-19 16:26N 57°49' E 004°56'12 9.7
2017-May-19 15:15N 58°01' E 004°53'14 9.5
2017-May-19 13:46N 58°15' E 004°49'3 9.5
2017-May-19 13:30N 58°17' E 004°49'5 9.6
2017-May-19 13:00N 58°22' E 004°48'5 9.8
2017-May-19 12:31N 58°27' E 004°47'510.1
2017-May-19 12:01N 58°32' E 004°46'510.0
2017-May-19 11:30N 58°37' E 004°46'5 9.5
2017-May-19 11:00N 58°42' E 004°45'4 8.7
2017-May-19 10:30N 58°46' E 004°44'4 8.3
2017-May-19 09:58N 58°50' E 004°42'5 9.7
2017-May-19 09:31N 58°55' E 004°41'9310.0
2017-May-19 00:09N 60°28' E 004°24'2 9.6
2017-May-19 00:00N 60°29' E 004°24'5 9.5
2017-May-18 23:30N 60°34' E 004°23'5 9.5
2017-May-18 23:00N 60°39' E 004°21'5 9.3
2017-May-18 22:30N 60°43' E 004°20'5 9.5
2017-May-18 22:00N 60°48' E 004°19'5 9.6
2017-May-18 21:30N 60°53' E 004°18'5 9.5
2017-May-18 21:00N 60°58' E 004°17'5 9.3
2017-May-18 20:30N 61°02' E 004°19'5 9.1
2017-May-18 20:00N 61°07' E 004°20'5 9.2
2017-May-18 19:30N 61°11' E 004°21'5 9.4
2017-May-18 19:00N 61°16' E 004°22'5 9.4
2017-May-18 18:30N 61°21' E 004°23'5 9.7
2017-May-18 18:00N 61°25' E 004°25'5 9.7
2017-May-18 17:30N 61°30' E 004°26'5 9.9
2017-May-18 17:00N 61°35' E 004°27'5 9.8
2017-May-18 16:30N 61°40' E 004°28'5 9.4
2017-May-18 16:00N 61°44' E 004°31'5 9.5
2017-May-18 15:30N 61°49' E 004°36'5 9.4
2017-May-18 15:00N 61°53' E 004°39'5 9.3
2017-May-18 14:30N 61°57' E 004°43'9 9.2
2017-May-18 13:30N 62°06' E 004°50'5 9.4
2017-May-18 13:00N 62°10' E 004°54'5 9.1
2017-May-18 12:30N 62°14' E 004°58'5 9.0
2017-May-18 12:00N 62°18' E 005°03'5 9.3
2017-May-18 11:30N 62°22' E 005°09'5 9.3
2017-May-18 11:00N 62°26' E 005°15'5 9.4
2017-May-18 10:30N 62°29' E 005°21'5 9.4
2017-May-18 10:00N 62°33' E 005°28'5 9.8
2017-May-18 09:30N 62°37' E 005°35'5 9.9
2017-May-18 09:00N 62°41' E 005°41'5 9.9
2017-May-18 08:30N 62°45' E 005°48'5 9.6
2017-May-18 08:00N 62°49' E 005°55'5 9.5
2017-May-18 07:30N 62°52' E 006°01'5 9.3
2017-May-18 07:00N 62°56' E 006°07'5 9.5
2017-May-18 06:30N 62°60' E 006°13'5 9.5
2017-May-18 06:00N 63°04' E 006°19'5 9.2
2017-May-18 05:30N 63°07' E 006°25'5 9.3
2017-May-18 05:00N 63°11' E 006°32'  
Track history (hours):
 
Tides and Currents Weather Stations Pressure Air Temp Water Temp Dewpoint Dewpoint Depression Visibility Wind Speed Wind Dir Waves Ship Positions

Wilson Gdynia

Last reported at 2017-May-27 19:24 UTC. Time now 2017-May-27 19:33 UTC.
Position N 51°50' E 003°23'.

Length 88 m; draft 3.5 m.

Type: Cargo ship. MMSI: 314192000.

Date/timePositionNaut miles runAvg speedWind from/ knotsBaromVisibWave heightAir tempDewpointWater temp
2017-May-27 19:24N 51°50' E 003°23'0 0.0
2017-May-27 19:00N 51°50' E 003°23'0 0.0
2017-May-27 18:27N 51°50' E 003°23'0 0.0
2017-May-27 17:57N 51°50' E 003°23'0 0.0
2017-May-27 17:30N 51°50' E 003°23'0 0.0
2017-May-27 16:57N 51°50' E 003°23'0 0.0
2017-May-27 16:30N 51°50' E 003°23'0 0.0
2017-May-27 16:00N 51°50' E 003°23'0 0.0
2017-May-27 14:15N 51°50' E 003°23'0 0.0
2017-May-27 09:51N 51°49' E 003°22'3 6.9
2017-May-27 09:26N 51°48' E 003°19'7 8.7
2017-May-27 08:41N 51°41' E 003°18'410.0
2017-May-27 08:18N 51°38' E 003°21'310.5
2017-May-27 08:00N 51°35' E 003°24'510.4
2017-May-27 07:30N 51°30' E 003°27'611.4
2017-May-27 07:00N 51°26' E 003°34'5 9.1
2017-May-27 06:28N 51°28' E 003°42'0 0.0
2017-May-27 05:52N 51°28' E 003°42'0 0.0
2017-May-27 05:16N 51°28' E 003°42'0 0.0
2017-May-27 02:34N 51°28' E 003°42'0 0.0
2017-May-27 02:10N 51°28' E 003°42'0 0.0
2017-May-27 00:52N 51°28' E 003°42'0 0.0
2017-May-27 00:16N 51°28' E 003°42'0 0.0
2017-May-26 23:46N 51°28' E 003°42'0 0.0
2017-May-26 23:25N 51°28' E 003°42'0 0.0
2017-May-26 22:25N 51°28' E 003°42'0 0.0
2017-May-26 20:28N 51°28' E 003°42'0 0.0
2017-May-26 19:40N 51°28' E 003°42'0 0.0
2017-May-26 19:28N 51°28' E 003°42'0 0.0
2017-May-26 18:58N 51°28' E 003°42'0 0.0
2017-May-26 18:28N 51°28' E 003°42'0 0.0
2017-May-26 17:46N 51°28' E 003°42'0 0.0
2017-May-26 17:28N 51°28' E 003°42'0 0.0
2017-May-26 16:58N 51°28' E 003°42'0 0.0
2017-May-26 16:19N 51°28' E 003°42'0 0.0
2017-May-26 15:55N 51°28' E 003°42'0 0.0
2017-May-26 15:25N 51°28' E 003°42'0 0.0
2017-May-26 14:46N 51°28' E 003°42'0 0.0
2017-May-26 13:58N 51°28' E 003°42'0 0.0
2017-May-26 13:16N 51°28' E 003°42'0 0.0
2017-May-26 12:58N 51°28' E 003°42'0 0.0
2017-May-26 12:22N 51°28' E 003°42'0 0.0
2017-May-26 11:58N 51°28' E 003°42'0 0.0
2017-May-26 11:22N 51°28' E 003°42'0 0.0
2017-May-26 10:16N 51°28' E 003°42'0 0.0
2017-May-26 09:52N 51°28' E 003°42'0 0.0
2017-May-26 08:40N 51°28' E 003°42'0 0.0
2017-May-26 08:28N 51°28' E 003°42'0 0.0
2017-May-26 07:46N 51°28' E 003°42'0 0.0
2017-May-26 07:22N 51°28' E 003°42'0 0.0
2017-May-26 06:46N 51°28' E 003°42'0 0.0
2017-May-26 06:28N 51°28' E 003°42'0 0.0
2017-May-26 05:52N 51°28' E 003°42'0 0.0
2017-May-26 04:58N 51°28' E 003°42'0 0.0
2017-May-26 04:22N 51°28' E 003°42'0 0.0
2017-May-26 02:58N 51°28' E 003°42'0 0.0
2017-May-26 02:28N 51°28' E 003°42'0 0.0
2017-May-26 01:52N 51°28' E 003°42'0 0.0
2017-May-26 01:28N 51°28' E 003°42'0 0.0
2017-May-26 00:52N 51°28' E 003°42'0 0.0
2017-May-26 00:16N 51°28' E 003°42'0 0.0
2017-May-25 23:58N 51°28' E 003°42'0 0.0
2017-May-25 23:28N 51°28' E 003°42'0 0.0
2017-May-25 22:22N 51°28' E 003°42'0 0.0
2017-May-25 21:58N 51°28' E 003°42'0 0.0
2017-May-25 20:46N 51°28' E 003°42'0 0.0
2017-May-25 19:40N 51°28' E 003°42'0 0.0
2017-May-25 19:10N 51°28' E 003°42'0 0.0
2017-May-25 17:16N 51°28' E 003°42'0 0.0
2017-May-25 16:58N 51°28' E 003°42'0 0.0
2017-May-25 16:18N 51°28' E 003°42'0 0.4
2017-May-25 16:00N 51°28' E 003°42'3 6.3
2017-May-25 15:30N 51°26' E 003°37'3 6.5
2017-May-25 15:00N 51°27' E 003°32'4 7.5
2017-May-25 14:29N 51°30' E 003°28'18 8.6
2017-May-25 12:21N 51°46' E 003°13'810.0
2017-May-25 11:33N 51°49' E 003°01'210.4
2017-May-25 11:23N 51°49' E 002°58'410.4
2017-May-25 10:57N 51°51' E 002°52'510.2
2017-May-25 10:27N 51°53' E 002°44'610.2
2017-May-25 09:52N 51°58' E 002°38'410.6
2017-May-25 09:30N 52°02' E 002°35'710.7
2017-May-25 08:51N 52°07' E 002°29'911.0
2017-May-25 08:00N 52°16' E 002°22'911.4
2017-May-25 07:14N 52°23' E 002°15'1211.8
2017-May-25 06:11N 52°34' E 002°05'212.0
2017-May-25 06:00N 52°36' E 002°03'612.2
2017-May-25 05:30N 52°41' E 001°58'611.6
2017-May-25 05:01N 52°46' E 001°53'611.1
2017-May-25 04:31N 52°50' E 001°47'510.3
2017-May-25 04:01N 52°54' E 001°41'5 9.8
2017-May-25 03:31N 52°57' E 001°36'5 9.2
2017-May-25 03:01N 53°01' E 001°30'4 8.7
2017-May-25 02:31N 53°04' E 001°25'4 8.2
2017-May-25 02:01N 53°07' E 001°20'4 8.0
2017-May-25 01:30N 53°10' E 001°16'56 8.6
2017-May-24 18:57N 53°37' W 000°07'3 0.2
2017-May-24 02:29N 53°38' W 000°12'0 0.6
2017-May-24 01:59N 53°38' W 000°11'1 1.2
2017-May-24 01:30N 53°38' W 000°11'49 5.2
2017-May-23 16:06N 53°18' E 001°04'1 9.7
2017-May-23 15:59N 53°17' E 001°05'5 9.8
2017-May-23 15:31N 53°14' E 001°10'510.0
2017-May-23 15:01N 53°10' E 001°16'510.6
2017-May-23 14:30N 53°06' E 001°22'1211.6
2017-May-23 13:30N 52°58' E 001°34'612.7
2017-May-23 13:01N 52°53' E 001°42'713.1
2017-May-23 12:31N 52°49' E 001°50'713.1
2017-May-23 12:01N 52°44' E 001°57'713.1
2017-May-23 11:31N 52°38' E 002°02'612.8
2017-May-23 11:01N 52°33' E 002°08'4610.6
2017-May-23 06:41N 51°54' E 002°50'310.4
2017-May-23 06:22N 51°52' E 002°54'910.5
2017-May-23 05:32N 51°48' E 003°06'210.8
2017-May-23 05:18N 51°47' E 003°10'310.4
2017-May-23 04:59N 51°45' E 003°14'510.0
2017-May-23 04:30N 51°41' E 003°19'510.9
2017-May-23 04:00N 51°36' E 003°23'611.2
2017-May-23 03:30N 51°31' E 003°26'611.5
2017-May-23 03:01N 51°27' E 003°33'510.6
2017-May-23 02:30N 51°25' E 003°40'713.1
2017-May-23 02:00N 51°21' E 003°49'1 2.0
2017-May-23 01:30N 51°20' E 003°49'1 1.2
2017-May-23 01:00N 51°19' E 003°49'1 2.3
2017-May-23 00:30N 51°18' E 003°50'0 0.0
2017-May-23 00:00N 51°18' E 003°50'0 0.0
2017-May-22 23:18N 51°18' E 003°50'0 0.0
2017-May-22 23:00N 51°18' E 003°50'0 0.0
2017-May-22 22:30N 51°18' E 003°50'0 0.0
2017-May-22 22:00N 51°18' E 003°50'0 0.0
2017-May-22 21:30N 51°18' E 003°50'0 0.0
2017-May-22 21:00N 51°18' E 003°50'0 0.0
2017-May-22 20:30N 51°18' E 003°50'0 0.0
2017-May-22 20:00N 51°18' E 003°50'0 0.0
2017-May-22 19:30N 51°18' E 003°50'0 0.0
2017-May-22 19:00N 51°18' E 003°50'0 0.0
2017-May-22 18:30N 51°18' E 003°50'0 0.0
2017-May-22 17:57N 51°18' E 003°50'0 0.0
2017-May-22 17:18N 51°18' E 003°50'0 0.0
2017-May-22 17:00N 51°18' E 003°50'0 0.0
2017-May-22 16:24N 51°18' E 003°50'0 0.0
2017-May-22 16:00N 51°18' E 003°50'0 0.0
2017-May-22 15:30N 51°18' E 003°50'0 0.0
2017-May-22 14:54N 51°18' E 003°50'0 0.0
2017-May-22 13:48N 51°18' E 003°50'0 0.0
2017-May-22 13:30N 51°18' E 003°50'0 0.0
2017-May-22 12:58N 51°18' E 003°50'0 0.0
2017-May-22 12:28N 51°18' E 003°50'0 0.0
2017-May-22 11:58N 51°18' E 003°50'0 0.0
2017-May-22 11:28N 51°18' E 003°50'0 0.0
2017-May-22 10:58N 51°18' E 003°50'0 0.0
2017-May-22 10:22N 51°18' E 003°50'0 0.0
2017-May-22 09:58N 51°18' E 003°50'0 0.0
2017-May-22 09:28N 51°18' E 003°50'0 0.0
2017-May-22 08:58N 51°18' E 003°50'0 0.0
2017-May-22 08:22N 51°18' E 003°50'0 0.0
2017-May-22 07:58N 51°18' E 003°50'0 0.0
2017-May-22 07:28N 51°18' E 003°50'0 0.0
2017-May-22 06:58N 51°18' E 003°50'0 0.0
2017-May-22 06:28N 51°18' E 003°50'0 0.0
2017-May-22 05:58N 51°18' E 003°50'0 0.0
2017-May-22 05:28N 51°18' E 003°50'0 0.0
2017-May-22 04:52N 51°18' E 003°50'0 0.0
2017-May-22 04:22N 51°18' E 003°50'0 0.0
2017-May-22 03:58N 51°18' E 003°50'0 0.0
2017-May-22 03:28N 51°18' E 003°50'0 0.0
2017-May-22 02:58N 51°18' E 003°50'0 0.0
2017-May-22 02:28N 51°18' E 003°50'0 0.0
2017-May-22 01:58N 51°18' E 003°50'0 0.0
2017-May-22 01:22N 51°18' E 003°50'0 0.0
2017-May-22 00:58N 51°18' E 003°50'0 0.0
2017-May-22 00:22N 51°18' E 003°50'0 0.0
2017-May-21 23:52N 51°18' E 003°50'0 0.0
2017-May-21 23:28N 51°18' E 003°50'0 0.0
2017-May-21 22:52N 51°18' E 003°50'0 0.0
2017-May-21 22:28N 51°18' E 003°50'0 0.0
2017-May-21 21:58N 51°18' E 003°50'0 0.0
2017-May-21 21:25N 51°18' E 003°50'0 0.0
2017-May-21 20:58N 51°18' E 003°50'0 0.0
2017-May-21 20:28N 51°18' E 003°50'0 0.0
2017-May-21 19:58N 51°18' E 003°50'1 2.6
2017-May-21 19:30N 51°19' E 003°50'1 1.9
2017-May-21 19:00N 51°20' E 003°49'1 1.0
2017-May-21 18:30N 51°21' E 003°49'3 6.0
2017-May-21 18:00N 51°22' E 003°44'4 7.8
2017-May-21 17:30N 51°25' E 003°40'4 8.1
2017-May-21 17:00N 51°26' E 003°34'5 9.2
2017-May-21 16:31N 51°30' E 003°29'16 9.8
2017-May-21 14:52N 51°43' E 003°15'7 8.6
2017-May-21 14:00N 51°50' E 003°17'5 9.2
2017-May-21 13:30N 51°55' E 003°18'8 8.8
2017-May-21 12:38N 52°02' E 003°21'2 9.1
2017-May-21 12:25N 52°04' E 003°21'3 8.6
2017-May-21 12:00N 52°08' E 003°22'21 8.4
2017-May-21 09:29N 52°29' E 003°28'24 7.8
2017-May-21 06:27N 52°49' E 003°48'6 9.7
2017-May-21 05:50N 52°54' E 003°54'3 9.2
2017-May-21 05:27N 52°56' E 003°58'4 8.8
2017-May-21 04:59N 52°59' E 004°03'4 8.7
2017-May-21 04:29N 53°02' E 004°09'5 8.5
2017-May-21 03:55N 53°05' E 004°15'14 7.6
2017-May-21 02:02N 53°16' E 004°29'90 7.8
2017-May-20 14:32N 54°43' E 005°10'1 8.0
2017-May-20 14:28N 54°44' E 005°11'8 8.0
2017-May-20 13:30N 54°51' E 005°13'4 8.0
2017-May-20 12:59N 54°55' E 005°14'166 8.4
2017-May-19 17:22N 57°41' E 004°57'6 9.7
2017-May-19 16:46N 57°46' E 004°56'3 9.7
2017-May-19 16:26N 57°49' E 004°56'12 9.7
2017-May-19 15:15N 58°01' E 004°53'14 9.5
2017-May-19 13:46N 58°15' E 004°49'3 9.5
2017-May-19 13:30N 58°17' E 004°49'5 9.6
2017-May-19 13:00N 58°22' E 004°48'5 9.8
2017-May-19 12:31N 58°27' E 004°47'510.1
2017-May-19 12:01N 58°32' E 004°46'510.0
2017-May-19 11:30N 58°37' E 004°46'5 9.5
2017-May-19 11:00N 58°42' E 004°45'4 8.7
2017-May-19 10:30N 58°46' E 004°44'4 8.3
2017-May-19 09:58N 58°50' E 004°42'5 9.7
2017-May-19 09:31N 58°55' E 004°41'9310.0
2017-May-19 00:09N 60°28' E 004°24'2 9.6
2017-May-19 00:00N 60°29' E 004°24'5 9.5
2017-May-18 23:30N 60°34' E 004°23'5 9.5
2017-May-18 23:00N 60°39' E 004°21'5 9.3
2017-May-18 22:30N 60°43' E 004°20'5 9.5
2017-May-18 22:00N 60°48' E 004°19'5 9.6
2017-May-18 21:30N 60°53' E 004°18'5 9.5
2017-May-18 21:00N 60°58' E 004°17'5 9.3
2017-May-18 20:30N 61°02' E 004°19'5 9.1
2017-May-18 20:00N 61°07' E 004°20'5 9.2
2017-May-18 19:30N 61°11' E 004°21'5 9.4
2017-May-18 19:00N 61°16' E 004°22'5 9.4
2017-May-18 18:30N 61°21' E 004°23'5 9.7
2017-May-18 18:00N 61°25' E 004°25'5 9.7
2017-May-18 17:30N 61°30' E 004°26'5 9.9
2017-May-18 17:00N 61°35' E 004°27'5 9.8
2017-May-18 16:30N 61°40' E 004°28'5 9.4
2017-May-18 16:00N 61°44' E 004°31'5 9.5
2017-May-18 15:30N 61°49' E 004°36'5 9.4
2017-May-18 15:00N 61°53' E 004°39'5 9.3
2017-May-18 14:30N 61°57' E 004°43'9 9.2
2017-May-18 13:30N 62°06' E 004°50'5 9.4
2017-May-18 13:00N 62°10' E 004°54'5 9.1
2017-May-18 12:30N 62°14' E 004°58'5 9.0
2017-May-18 12:00N 62°18' E 005°03'5 9.3
2017-May-18 11:30N 62°22' E 005°09'5 9.3
2017-May-18 11:00N 62°26' E 005°15'5 9.4
2017-May-18 10:30N 62°29' E 005°21'5 9.4
2017-May-18 10:00N 62°33' E 005°28'5 9.8
2017-May-18 09:30N 62°37' E 005°35'5 9.9
2017-May-18 09:00N 62°41' E 005°41'5 9.9
2017-May-18 08:30N 62°45' E 005°48'5 9.6
2017-May-18 08:00N 62°49' E 005°55'5 9.5
2017-May-18 07:30N 62°52' E 006°01'5 9.3
2017-May-18 07:00N 62°56' E 006°07'5 9.5
2017-May-18 06:30N 62°60' E 006°13'5 9.5
2017-May-18 06:00N 63°04' E 006°19'5 9.2
2017-May-18 05:30N 63°07' E 006°25'5 9.3
2017-May-18 05:00N 63°11' E 006°32'  

Dump ship's entire track history